Nearby METAR Reports


Data Updates Approximately Every Four Hours

METAR is the international standard code format for hourly surface weather observations which is analogous to the SA coding currently used in the US. The acronym roughly translates from French as Aviation Routine Weather Report. SPECI is merely the code name given to METAR formatted products which are issued on a special non-routine basis as dictated by changing meteorological conditions. The SPECI acronym roughly translates as Aviation Selected Special Weather Report.

KSLH - Cheboygan, Michigan, USA
Distance from station: W 9mi, 14km
Updated: 06/18/2018 10:55am
Overcast
Overcast
 Wind from W
Wind: W 6 mph , 9 km/h
Temperature: 66°F , 19°C
Dew Point: 64°F , 18°C
Humidity: 94%
Barometer: 29.85 inHg , 1010.8 hPa
Clouds: Overcast
Visibility: 10 miles , 16 km
Cloud details: Partly cloudy 600 ft
Overcast 3300 ft
2018/06/18 14:55 KSLH 181455Z AUTO 26005KT 10SM SCT006 OVC033 19/18 A2985 RMK AO2 T01960190
KMCD - Mackinac Island, Michigan, USA
Distance from station: NW 19mi, 31km
Updated: 06/18/2018 10:35am
Fog, Overcast
Fog, Overcast
 Wind from WSW
Wind: WSW 7 mph , 11 km/h
Temperature: 61°F , 16°C
Dew Point: 61°F , 16°C
Humidity: 100%
Barometer: 29.86 inHg , 1011.2 hPa
Summary: Fog
Clouds: Overcast
Visibility: 1/4 mile , 0.4 km
Cloud details: Overcast 200 ft
2018/06/18 14:35 KMCD 181435Z AUTO 24006KT 1/4SM FG OVC002 16/16 A2986 RMK AO2 T01610161
 
KPLN - Pellston, Michigan, USA
Distance from station: WSW 24mi, 38km
Updated: 06/18/2018 10:54am
Light rain, Overcast
Light rain, Overcast
 Wind from W
Wind: W 6 mph , 9 km/h
Temperature: 66°F , 19°C
Dew Point: 66°F , 19°C
Humidity: 100%
Barometer: 29.88 inHg , 1011.9 hPa
Summary: Light rain
Clouds: Overcast
Visibility: 10 miles , 16 km
Cloud details: Overcast 400 ft
2018/06/18 14:54 KPLN 181454Z AUTO 27005KT 10SM -RA OVC004 19/19 A2988 RMK AO2 SLP116 P0000 60002 T01940189 51010
KPZQ - Rogers City, Michigan, USA
Distance from station: SE 31mi, 50km
Updated: 06/18/2018 10:55am
Light rain, Overcast
Light rain, Overcast
 Wind from WNW
Wind: WNW 5 mph , 7 km/h
Temperature: 68°F , 20°C
Dew Point: 66°F , 19°C
Humidity: 94%
Barometer: 29.87 inHg , 1011.5 hPa
Summary: Light rain
Clouds: Overcast
Visibility: 2 1/2 miles , 4 km
Cloud details: Overcast 700 ft
2018/06/18 14:55 KPZQ 181455Z AUTO 30004KT 2 1/2SM -RA OVC007 20/19 A2987 RMK AO2 T01970192
 
KMGN - Harbor Springs, Michigan, USA
Distance from station: WSW 32mi, 52km
Updated: 06/18/2018 10:35am
Drizzle, Overcast
Drizzle, Overcast
 Wind from W
Wind: W 5 mph , 7 km/h
Temperature: 61°F , 16°C
Dew Point: 61°F , 16°C
Humidity: 100%
Barometer: 29.90 inHg , 1012.5 hPa
Summary: Drizzle
Clouds: Overcast
Visibility: 10 miles , 16 km
Cloud details: Overcast 200 ft
2018/06/18 14:35 KMGN 181435Z AUTO 27004KT 10SM DZ OVC002 16/16 A2990 RMK AO2 T01650162
KDRM - Drummond Is, Michigan, USA
Distance from station: NE 36mi, 59km
Updated: 06/18/2018 10:55am
Light rain, Overcast
Light rain, Overcast
 Wind from W
Wind: W 3 mph , 6 km/h
Temperature: 70°F , 21°C
Dew Point: 68°F , 20°C
Humidity: 94%
Barometer: 29.84 inHg , 1010.5 hPa
Summary: Light rain
Clouds: Overcast
Visibility: 10 miles , 16 km
Cloud details: Overcast 400 ft
2018/06/18 14:55 KDRM 181455Z AUTO 26003KT 10SM -RA OVC004 21/20 A2984 RMK AO2 P0004 60013 T02070204
 
KCIU - Chippewa Intl, Michigan, USA
Distance from station: N 41mi, 66km
Updated: 06/18/2018 10:56am
Mist, Overcast
Mist, Overcast
 Wind from WNW
Wind: WNW 8 mph , 13 km/h
Temperature: 66°F , 19°C
Dew Point: 66°F , 19°C
Humidity: 100%
Barometer: 29.86 inHg , 1011.2 hPa
Summary: Mist
Clouds: Overcast
Visibility: 6 miles , 10 km
Cloud details: Overcast 200 ft
2018/06/18 14:56 KCIU 181456Z AUTO 29007KT 6SM BR OVC002 19/19 A2986 RMK AO2 RAB29E50 SLP128 6//// T01940194 50004 PNO $
KGLR - Gaylord, Michigan, USA
Distance from station: SSW 48mi, 77km
Updated: 06/18/2018 10:53am
Light rain, Overcast
Light rain, Overcast
 Wind from W
Wind: W 6 mph , 9 km/h
Temperature: 70°F , 21°C
Dew Point: 70°F , 21°C
Humidity: 100%
Barometer: 29.90 inHg , 1012.5 hPa
Summary: Light rain
Clouds: Overcast
Visibility: 8 miles , 13 km
Cloud details: Overcast 700 ft
2018/06/18 14:53 KGLR 181453Z AUTO 27005KT 8SM -RA OVC007 21/21 A2990 RMK AO2 CIG 005V010 SLP118 P0005 60007 T02110206 51006
 
KCVX - Charlevoix, Michigan, USA
Distance from station: WSW 52mi, 83km
Updated: 06/18/2018 10:55am
Rain, Overcast
Rain, Overcast
 Wind from WSW
Wind: WSW 9 mph , 15 km/h
Temperature: 64°F , 18°C
Dew Point: 64°F , 18°C
Humidity: 100%
Barometer: 29.93 inHg , 1013.5 hPa
Summary: Rain
Clouds: Overcast
Visibility: 5 miles , 8 km
Cloud details: Mostly cloudy 200 ft
Overcast 700 ft
2018/06/18 14:55 KCVX 181455Z AUTO 24008KT 5SM RA BKN002 OVC007 18/18 A2993 RMK AO2 T01750175
KANJ - Sault Ste Marie, Michigan, USA
Distance from station: N 56mi, 89km
Updated: 06/18/2018 10:55am
Mist, Overcast
Mist, Overcast
 Wind from NW
Wind: NW 13 mph , 20 km/h, Gust: 18 mph , 30 km/h
Temperature: 64°F , 18°C
Dew Point: 63°F , 17°C
Humidity: 94%
Barometer: 29.85 inHg , 1010.8 hPa
Summary: Mist
Clouds: Overcast
Visibility: 6 miles , 10 km
Cloud details: Overcast 400 ft
2018/06/18 14:55 KANJ 181455Z AUTO 32011G16KT 6SM BR OVC004 18/17 A2985 RMK AO2 CIG 002V007 SLP105 60007 T01780172 53008
 
KAPN - Alpena, Michigan, USA
Distance from station: SE 56mi, 89km
Updated: 06/18/2018 10:54am
Light rain, Overcast
Light rain, Overcast
 Wind from W
Wind: W 7 mph , 11 km/h
Temperature: 75°F , 24°C
Dew Point: 72°F , 22°C
Humidity: 89%
Barometer: 29.86 inHg , 1011.2 hPa
Summary: Light rain
Clouds: Overcast
Visibility: 10 miles , 16 km
Cloud details: Mostly cloudy 1600 ft
Overcast 2300 ft
2018/06/18 14:54 KAPN 181454Z AUTO 26006KT 10SM -RA BKN016 OVC023 24/22 A2986 RMK AO2 RAB31 SLP108 P0000 60000 T02390222 53002
CYAM - Sault Ste Marie, Ontario, Canada
Distance from station: N 56mi, 90km
Updated: 06/18/2018 10:50am
Light drizzle, Mist, Overcast
Light drizzle, Mist, Overcast
 Wind from NW
Wind: NW 17 mph , 28 km/h
Temperature: 61°F , 16°C
Dew Point: 61°F , 16°C
Humidity: 100%
Barometer: 29.86 inHg , 1011.2 hPa
Summary: Light drizzle, Mist
Clouds: Overcast
Visibility: 1 1/2 miles , 2.4 km
Cloud details: Few Clouds 100 ft
Partly cloudy 300 ft
Overcast 500 ft
2018/06/18 14:50 CYAM 181450Z 32015KT 1 1/2SM -DZ BR FEW001 SCT003 OVC005 16/16 A2986 RMK FG1SF1ST2SC4 VIS VRB 1 - 2 CIG VRB 3 - 7 SLP112 DENSITY ALT 1000FT
 
KSJX - Beaver Island, Michigan, USA
Distance from station: W 60mi, 96km
Updated: 06/18/2018 10:56am
Light rain, Overcast
Light rain, Overcast
 Wind from W
Wind: W 7 mph , 11 km/h
Temperature: 66°F , 19°C
Dew Point: 66°F , 19°C
Humidity: 100%
Barometer: 29.89 inHg , 1012.2 hPa
Summary: Light rain
Clouds: Overcast
Visibility: 3 miles , 5 km
Cloud details: Overcast 200 ft
2018/06/18 14:56 KSJX 181456Z AUTO 26006KT 3SM -RA OVC002 19/19 A2989 RMK AO2 T01880188
KACB - Bellaire, Michigan, USA
Distance from station: SW 63mi, 102km
Updated: 06/18/2018 10:55am
Rain, Overcast
Rain, Overcast
 Wind from W
Wind: W 5 mph , 7 km/h
Temperature: 70°F , 21°C
Dew Point: 70°F , 21°C
Humidity: 100%
Barometer: 29.89 inHg , 1012.2 hPa
Summary: Rain
Clouds: Overcast
Visibility: 10 miles , 16 km
Cloud details: Overcast 500 ft
2018/06/18 14:55 KACB 181455Z AUTO 28004KT 10SM RA OVC005 21/21 A2989 RMK AO2 T02130205
 
CWNL - Great Duck Island, Ontario, Canada
Distance from station: E 66mi, 106km
Updated: 06/18/2018 10:00am

 Wind from NW
Wind: NW 3 mph , 6 km/h
Temperature: 57°F , 14°C
Dew Point: 55°F , 13°C
Humidity: 94%
2018/06/18 14:00 CWNL 181400Z AUTO 32003KT 14/13 RMK AO1 SLP104 T01360126 53002
KERY - Newberry, Michigan, USA
Distance from station: NW 69mi, 112km
Updated: 06/18/2018 10:55am
Overcast
Overcast
 Wind from NNW
Wind: NNW 7 mph , 11 km/h
Temperature: 68°F , 20°C
Dew Point: 66°F , 19°C
Humidity: 94%
Barometer: 29.88 inHg , 1011.9 hPa
Clouds: Overcast
Visibility: 10 miles , 16 km
Cloud details: Mostly cloudy 900 ft
Overcast 1600 ft
2018/06/18 14:55 KERY 181455Z AUTO 33006KT 10SM BKN009 OVC016 20/19 A2988 RMK AO2 T01990194
 
KGOV - Grayling Af, Michigan, USA
Distance from station: SSW 70mi, 113km
Updated: 06/17/2018 7:58pm
NOT Current
Clear
Clear
 Wind from SW
Wind: SW 16 mph , 26 km/h, Gust: 23 mph , 37 km/h
Temperature: 88°F , 31°C
Heat Index: 92°F , 33°C
Dew Point: 68°F , 20°C
Humidity: 52%
Barometer: 29.88 inHg , 1011.9 hPa
Clouds: Clear
Visibility: 10 miles , 16 km
2018/06/17 23:58 KGOV 172358Z AUTO 23014G20KT 10SM CLR 31/20 A2988 RMK AO2 SLP116 T03070196 10333 20307 55008 $